Glasgow, Montana
Current Conditions -  °F | °C
As of 6:53 PM on Monday 20 Oct 2014 (Local Time) from KGGW Reporting Station
Clear Clear  
Wind Chill: 56°   Ceiling: Unl
Heat Index: 56°   Visibility: 10mi
Dew Point: 40°   Wind: 9mph
Humidity: 55%   Direction: 120°ESE
Pressure: 29.75"   Gusts: NA
Location:  48.2°N, 106.64°W
Report Text: KGGW 210053Z AUTO 12008KT 10SM CLR 13/04 A2975 RMK AO2 SLP083 T01330044
Loading
Personal Weather Stations






























Interactive Weather Map New forecast layout! Learn more

10-Day Weather Forecast

Advertisements
Track Severe Weather on mobile